Terminal Aerodrome Forecast
Issued by NWS

Home | Current Version | Previous Version | Text Only | Print | Product List | Glossary On
Versions: 1 2 3 4 5 6 7 8 9 10 11 12 13 14 15
000
FTUS43 KMQT 201129
TAFIWD
TAF
KIWD 201129Z 2012/2112 14012KT P6SM -SHRA VCTS SCT018 OVC030CB
      WS020/18050KT
     FM201400 17018G29KT P6SM SCT009 BKN035
     FM201800 20016G25KT P6SM VCTS BKN015CB
     FM202200 25006KT P6SM BKN020
     FM210600 VRB03KT 4SM BR FEW200=

USA.gov is the U.S. government's official web portal to all federal, state and local government web resources and services.